sensor_id;sensor_type;location;lat;lon;timestamp;P1;durP1;ratioP1;P2;durP2;ratioP2
9034;SDS011;4552;43.422;24.592;2023-07-31T00:02:20;7.60;;;6.17;;
9034;SDS011;4552;43.422;24.592;2023-07-31T00:04:47;6.93;;;6.23;;
9034;SDS011;4552;43.422;24.592;2023-07-31T00:07:15;5.97;;;5.30;;
9034;SDS011;4552;43.422;24.592;2023-07-31T00:09:42;6.77;;;5.93;;
9034;SDS011;4552;43.422;24.592;2023-07-31T00:12:09;6.53;;;5.87;;
9034;SDS011;4552;43.422;24.592;2023-07-31T00:14:36;9.43;;;6.13;;
9034;SDS011;4552;43.422;24.592;2023-07-31T00:46:51;4.83;;;4.33;;
9034;SDS011;4552;43.422;24.592;2023-07-31T00:49:19;5.03;;;4.27;;
9034;SDS011;4552;43.422;24.592;2023-07-31T00:51:47;5.23;;;4.30;;
9034;SDS011;4552;43.422;24.592;2023-07-31T00:54:14;7.13;;;4.60;;
9034;SDS011;4552;43.422;24.592;2023-07-31T00:56:41;6.47;;;5.47;;
9034;SDS011;4552;43.422;24.592;2023-07-31T00:59:11;6.60;;;5.53;;
9034;SDS011;4552;43.422;24.592;2023-07-31T01:01:40;5.63;;;4.67;;
9034;SDS011;4552;43.422;24.592;2023-07-31T01:04:07;7.60;;;5.47;;
9034;SDS011;4552;43.422;24.592;2023-07-31T01:06:36;6.93;;;5.27;;
9034;SDS011;4552;43.422;24.592;2023-07-31T01:09:11;5.80;;;5.20;;
9034;SDS011;4552;43.422;24.592;2023-07-31T01:11:48;7.97;;;6.00;;
9034;SDS011;4552;43.422;24.592;2023-07-31T01:14:19;6.93;;;5.53;;
9034;SDS011;4552;43.422;24.592;2023-07-31T01:16:47;7.80;;;6.23;;
9034;SDS011;4552;43.422;24.592;2023-07-31T01:19:14;6.80;;;6.00;;
9034;SDS011;4552;43.422;24.592;2023-07-31T01:21:51;7.47;;;5.93;;
9034;SDS011;4552;43.422;24.592;2023-07-31T01:24:41;7.32;;;6.60;;
9034;SDS011;4552;43.422;24.592;2023-07-31T01:27:23;6.47;;;5.87;;
9034;SDS011;4552;43.422;24.592;2023-07-31T01:29:56;6.30;;;5.70;;
9034;SDS011;4552;43.422;24.592;2023-07-31T01:32:35;5.97;;;5.23;;
9034;SDS011;4552;43.422;24.592;2023-07-31T01:35:05;6.27;;;5.60;;
9034;SDS011;4552;43.422;24.592;2023-07-31T01:37:33;7.50;;;5.93;;
9034;SDS011;4552;43.422;24.592;2023-07-31T01:40:00;9.70;;;6.67;;
9034;SDS011;4552;43.422;24.592;2023-07-31T01:42:29;8.87;;;6.00;;
9034;SDS011;4552;43.422;24.592;2023-07-31T01:44:56;7.50;;;6.70;;
9034;SDS011;4552;43.422;24.592;2023-07-31T01:56:55;7.70;;;6.97;;
9034;SDS011;4552;43.422;24.592;2023-07-31T01:59:23;8.37;;;6.87;;
9034;SDS011;4552;43.422;24.592;2023-07-31T02:01:54;8.67;;;7.20;;
9034;SDS011;4552;43.422;24.592;2023-07-31T02:04:21;8.30;;;7.03;;
9034;SDS011;4552;43.422;24.592;2023-07-31T02:06:49;7.97;;;6.90;;
9034;SDS011;4552;43.422;24.592;2023-07-31T02:09:19;9.68;;;8.55;;
9034;SDS011;4552;43.422;24.592;2023-07-31T02:11:46;8.50;;;7.67;;
9034;SDS011;4552;43.422;24.592;2023-07-31T02:14:14;9.17;;;8.10;;
9034;SDS011;4552;43.422;24.592;2023-07-31T02:16:42;8.33;;;7.37;;
9034;SDS011;4552;43.422;24.592;2023-07-31T02:19:09;8.00;;;6.63;;
9034;SDS011;4552;43.422;24.592;2023-07-31T02:21:36;9.13;;;7.07;;
9034;SDS011;4552;43.422;24.592;2023-07-31T02:24:03;8.00;;;7.20;;
9034;SDS011;4552;43.422;24.592;2023-07-31T02:26:31;8.07;;;7.27;;
9034;SDS011;4552;43.422;24.592;2023-07-31T02:28:58;10.13;;;7.93;;
9034;SDS011;4552;43.422;24.592;2023-07-31T02:31:25;8.03;;;7.23;;
9034;SDS011;4552;43.422;24.592;2023-07-31T02:33:53;9.03;;;7.77;;
9034;SDS011;4552;43.422;24.592;2023-07-31T02:36:20;8.80;;;7.93;;
9034;SDS011;4552;43.422;24.592;2023-07-31T02:38:47;8.27;;;7.43;;
9034;SDS011;4552;43.422;24.592;2023-07-31T02:41:14;9.83;;;8.83;;
9034;SDS011;4552;43.422;24.592;2023-07-31T02:43:41;9.80;;;8.77;;
9034;SDS011;4552;43.422;24.592;2023-07-31T02:46:08;9.13;;;7.60;;
9034;SDS011;4552;43.422;24.592;2023-07-31T03:38:38;7.00;;;6.40;;
9034;SDS011;4552;43.422;24.592;2023-07-31T03:41:06;8.55;;;7.63;;
9034;SDS011;4552;43.422;24.592;2023-07-31T03:43:37;7.53;;;6.27;;
9034;SDS011;4552;43.422;24.592;2023-07-31T03:46:04;7.83;;;7.03;;
9034;SDS011;4552;43.422;24.592;2023-07-31T03:48:32;11.73;;;7.63;;
9034;SDS011;4552;43.422;24.592;2023-07-31T03:50:59;8.07;;;7.27;;
9034;SDS011;4552;43.422;24.592;2023-07-31T03:53:27;10.00;;;7.57;;
9034;SDS011;4552;43.422;24.592;2023-07-31T03:55:57;8.53;;;7.47;;
9034;SDS011;4552;43.422;24.592;2023-07-31T03:58:24;9.00;;;7.60;;
9034;SDS011;4552;43.422;24.592;2023-07-31T04:01:05;8.57;;;7.50;;
9034;SDS011;4552;43.422;24.592;2023-07-31T04:03:32;8.53;;;7.50;;
9034;SDS011;4552;43.422;24.592;2023-07-31T04:05:59;11.73;;;7.80;;
9034;SDS011;4552;43.422;24.592;2023-07-31T04:08:30;8.67;;;7.77;;
9034;SDS011;4552;43.422;24.592;2023-07-31T04:10:57;8.60;;;7.60;;
9034;SDS011;4552;43.422;24.592;2023-07-31T04:13:24;9.63;;;8.20;;
9034;SDS011;4552;43.422;24.592;2023-07-31T04:15:52;8.30;;;7.40;;
9034;SDS011;4552;43.422;24.592;2023-07-31T04:39:47;8.00;;;6.93;;
9034;SDS011;4552;43.422;24.592;2023-07-31T04:42:14;11.47;;;8.17;;
9034;SDS011;4552;43.422;24.592;2023-07-31T04:44:41;8.63;;;7.37;;
9034;SDS011;4552;43.422;24.592;2023-07-31T04:47:08;8.33;;;7.17;;
9034;SDS011;4552;43.422;24.592;2023-07-31T04:49:35;9.60;;;7.50;;
9034;SDS011;4552;43.422;24.592;2023-07-31T04:52:02;8.33;;;6.83;;
9034;SDS011;4552;43.422;24.592;2023-07-31T04:54:30;8.17;;;7.17;;
9034;SDS011;4552;43.422;24.592;2023-07-31T04:56:58;9.17;;;7.57;;
9034;SDS011;4552;43.422;24.592;2023-07-31T04:59:25;9.47;;;6.93;;
9034;SDS011;4552;43.422;24.592;2023-07-31T05:01:52;7.90;;;6.60;;
9034;SDS011;4552;43.422;24.592;2023-07-31T05:04:19;7.37;;;6.23;;
9034;SDS011;4552;43.422;24.592;2023-07-31T05:06:46;8.27;;;6.83;;
9034;SDS011;4552;43.422;24.592;2023-07-31T05:09:13;8.17;;;6.43;;
9034;SDS011;4552;43.422;24.592;2023-07-31T05:11:40;6.40;;;5.80;;
9034;SDS011;4552;43.422;24.592;2023-07-31T05:14:09;6.07;;;5.47;;
9034;SDS011;4552;43.422;24.592;2023-07-31T05:16:37;9.48;;;8.00;;
9034;SDS011;4552;43.422;24.592;2023-07-31T05:19:04;6.43;;;5.83;;
9034;SDS011;4552;43.422;24.592;2023-07-31T05:21:31;6.53;;;5.50;;
9034;SDS011;4552;43.422;24.592;2023-07-31T05:23:57;6.27;;;5.20;;
9034;SDS011;4552;43.422;24.592;2023-07-31T05:26:24;6.10;;;4.77;;
9034;SDS011;4552;43.422;24.592;2023-07-31T05:28:51;5.63;;;4.73;;
9034;SDS011;4552;43.422;24.592;2023-07-31T05:31:20;6.10;;;5.07;;
9034;SDS011;4552;43.422;24.592;2023-07-31T05:33:47;7.40;;;4.90;;
9034;SDS011;4552;43.422;24.592;2023-07-31T05:36:15;6.50;;;4.93;;
9034;SDS011;4552;43.422;24.592;2023-07-31T05:38:42;6.60;;;5.70;;
9034;SDS011;4552;43.422;24.592;2023-07-31T06:31:39;3.50;;;3.20;;
9034;SDS011;4552;43.422;24.592;2023-07-31T07:14:25;2.77;;;2.57;;
9034;SDS011;4552;43.422;24.592;2023-07-31T07:16:52;3.27;;;2.97;;
9034;SDS011;4552;43.422;24.592;2023-07-31T07:19:19;2.97;;;2.70;;
9034;SDS011;4552;43.422;24.592;2023-07-31T07:21:46;3.17;;;2.87;;
9034;SDS011;4552;43.422;24.592;2023-07-31T07:24:13;3.20;;;2.60;;
9034;SDS011;4552;43.422;24.592;2023-07-31T07:26:40;3.57;;;2.90;;
9034;SDS011;4552;43.422;24.592;2023-07-31T07:29:07;3.83;;;3.23;;
9034;SDS011;4552;43.422;24.592;2023-07-31T07:31:38;3.10;;;2.80;;
9034;SDS011;4552;43.422;24.592;2023-07-31T07:34:05;3.22;;;2.92;;
9034;SDS011;4552;43.422;24.592;2023-07-31T07:36:33;4.03;;;2.87;;
9034;SDS011;4552;43.422;24.592;2023-07-31T07:39:00;5.17;;;2.63;;
9034;SDS011;4552;43.422;24.592;2023-07-31T07:41:27;3.50;;;3.10;;
9034;SDS011;4552;43.422;24.592;2023-07-31T07:43:54;4.47;;;2.90;;
9034;SDS011;4552;43.422;24.592;2023-07-31T07:46:21;2.87;;;2.60;;
9034;SDS011;4552;43.422;24.592;2023-07-31T07:48:49;3.20;;;2.90;;
9034;SDS011;4552;43.422;24.592;2023-07-31T07:51:16;3.60;;;3.10;;
9034;SDS011;4552;43.422;24.592;2023-07-31T07:53:45;3.10;;;2.80;;
9034;SDS011;4552;43.422;24.592;2023-07-31T07:56:12;3.20;;;2.90;;
9034;SDS011;4552;43.422;24.592;2023-07-31T07:58:39;2.87;;;2.63;;
9034;SDS011;4552;43.422;24.592;2023-07-31T08:01:06;2.93;;;2.63;;
9034;SDS011;4552;43.422;24.592;2023-07-31T08:03:33;3.73;;;2.80;;
9034;SDS011;4552;43.422;24.592;2023-07-31T08:06:05;4.13;;;3.10;;
9034;SDS011;4552;43.422;24.592;2023-07-31T08:08:37;3.60;;;2.97;;
9034;SDS011;4552;43.422;24.592;2023-07-31T08:11:04;3.30;;;2.93;;
9034;SDS011;4552;43.422;24.592;2023-07-31T08:13:32;3.10;;;2.80;;
9034;SDS011;4552;43.422;24.592;2023-07-31T08:16:01;3.40;;;3.07;;
9034;SDS011;4552;43.422;24.592;2023-07-31T08:31:55;2.80;;;2.60;;
9034;SDS011;4552;43.422;24.592;2023-07-31T08:34:22;2.57;;;2.37;;
9034;SDS011;4552;43.422;24.592;2023-07-31T08:36:49;2.47;;;2.27;;
9034;SDS011;4552;43.422;24.592;2023-07-31T08:39:16;2.90;;;2.50;;
9034;SDS011;4552;43.422;24.592;2023-07-31T08:41:43;2.90;;;2.53;;
9034;SDS011;4552;43.422;24.592;2023-07-31T08:44:10;3.10;;;2.80;;
9034;SDS011;4552;43.422;24.592;2023-07-31T08:46:38;2.67;;;2.47;;
9034;SDS011;4552;43.422;24.592;2023-07-31T08:49:08;3.63;;;3.00;;
9034;SDS011;4552;43.422;24.592;2023-07-31T08:51:36;3.40;;;2.90;;
9034;SDS011;4552;43.422;24.592;2023-07-31T08:54:04;2.60;;;2.40;;
9034;SDS011;4552;43.422;24.592;2023-07-31T08:56:31;2.97;;;2.60;;
9034;SDS011;4552;43.422;24.592;2023-07-31T08:58:58;3.93;;;3.00;;
9034;SDS011;4552;43.422;24.592;2023-07-31T09:01:29;2.70;;;2.50;;
9034;SDS011;4552;43.422;24.592;2023-07-31T09:07:23;2.77;;;2.50;;
9034;SDS011;4552;43.422;24.592;2023-07-31T09:09:51;3.20;;;2.60;;
9034;SDS011;4552;43.422;24.592;2023-07-31T09:12:18;2.67;;;2.47;;
9034;SDS011;4552;43.422;24.592;2023-07-31T09:14:46;4.13;;;3.30;;
9034;SDS011;4552;43.422;24.592;2023-07-31T09:17:13;3.20;;;2.90;;
9034;SDS011;4552;43.422;24.592;2023-07-31T12:41:42;3.90;;;3.50;;
9034;SDS011;4552;43.422;24.592;2023-07-31T12:44:09;4.00;;;3.60;;
9034;SDS011;4552;43.422;24.592;2023-07-31T12:46:37;5.17;;;3.53;;
9034;SDS011;4552;43.422;24.592;2023-07-31T12:49:04;3.93;;;3.63;;
9034;SDS011;4552;43.422;24.592;2023-07-31T12:51:31;4.63;;;3.57;;
9034;SDS011;4552;43.422;24.592;2023-07-31T12:53:57;3.93;;;3.63;;
9034;SDS011;4552;43.422;24.592;2023-07-31T12:56:26;4.33;;;3.90;;
9034;SDS011;4552;43.422;24.592;2023-07-31T12:58:54;4.53;;;3.83;;
9034;SDS011;4552;43.422;24.592;2023-07-31T13:01:21;4.83;;;4.33;;
9034;SDS011;4552;43.422;24.592;2023-07-31T13:03:48;4.23;;;3.80;;
9034;SDS011;4552;43.422;24.592;2023-07-31T13:06:15;6.32;;;4.00;;
9034;SDS011;4552;43.422;24.592;2023-07-31T13:08:42;4.40;;;3.70;;
9034;SDS011;4552;43.422;24.592;2023-07-31T13:11:15;5.83;;;5.00;;
9034;SDS011;4552;43.422;24.592;2023-07-31T13:13:43;3.87;;;3.57;;
9034;SDS011;4552;43.422;24.592;2023-07-31T13:16:10;4.80;;;4.30;;
9034;SDS011;4552;43.422;24.592;2023-07-31T13:18:37;3.93;;;3.50;;
9034;SDS011;4552;43.422;24.592;2023-07-31T13:21:04;4.43;;;4.03;;
9034;SDS011;4552;43.422;24.592;2023-07-31T13:23:34;4.23;;;3.83;;
9034;SDS011;4552;43.422;24.592;2023-07-31T13:26:01;5.50;;;4.80;;
9034;SDS011;4552;43.422;24.592;2023-07-31T13:28:29;7.17;;;6.10;;
9034;SDS011;4552;43.422;24.592;2023-07-31T13:30:57;5.27;;;4.63;;
9034;SDS011;4552;43.422;24.592;2023-07-31T13:33:24;6.37;;;5.40;;
9034;SDS011;4552;43.422;24.592;2023-07-31T15:17:30;3.90;;;2.67;;
9034;SDS011;4552;43.422;24.592;2023-07-31T15:19:57;2.33;;;2.13;;
9034;SDS011;4552;43.422;24.592;2023-07-31T15:27:27;2.80;;;2.13;;
9034;SDS011;4552;43.422;24.592;2023-07-31T15:29:54;3.63;;;2.60;;
9034;SDS011;4552;43.422;24.592;2023-07-31T15:32:21;8.20;;;7.70;;
9034;SDS011;4552;43.422;24.592;2023-07-31T15:34:50;8.40;;;7.80;;
9034;SDS011;4552;43.422;24.592;2023-07-31T15:37:17;9.37;;;8.57;;
9034;SDS011;4552;43.422;24.592;2023-07-31T15:39:44;8.10;;;6.63;;
9034;SDS011;4552;43.422;24.592;2023-07-31T15:42:11;7.93;;;6.23;;
9034;SDS011;4552;43.422;24.592;2023-07-31T18:06:29;17.23;;;11.57;;
9034;SDS011;4552;43.422;24.592;2023-07-31T18:08:59;9.82;;;7.57;;
9034;SDS011;4552;43.422;24.592;2023-07-31T18:11:26;8.53;;;6.87;;
9034;SDS011;4552;43.422;24.592;2023-07-31T18:13:55;16.63;;;11.93;;
9034;SDS011;4552;43.422;24.592;2023-07-31T18:16:22;22.33;;;15.50;;
9034;SDS011;4552;43.422;24.592;2023-07-31T18:18:49;24.70;;;17.63;;
9034;SDS011;4552;43.422;24.592;2023-07-31T18:21:17;9.77;;;6.50;;
9034;SDS011;4552;43.422;24.592;2023-07-31T18:23:44;30.13;;;20.50;;
9034;SDS011;4552;43.422;24.592;2023-07-31T18:26:11;13.73;;;9.83;;
9034;SDS011;4552;43.422;24.592;2023-07-31T18:28:38;28.63;;;18.77;;
9034;SDS011;4552;43.422;24.592;2023-07-31T18:31:05;19.13;;;12.70;;
9034;SDS011;4552;43.422;24.592;2023-07-31T18:33:32;14.35;;;11.02;;
9034;SDS011;4552;43.422;24.592;2023-07-31T18:36:01;19.63;;;11.73;;
9034;SDS011;4552;43.422;24.592;2023-07-31T18:38:30;18.10;;;11.60;;
9034;SDS011;4552;43.422;24.592;2023-07-31T18:40:58;9.97;;;7.60;;
9034;SDS011;4552;43.422;24.592;2023-07-31T18:43:25;12.80;;;9.10;;
9034;SDS011;4552;43.422;24.592;2023-07-31T19:39:17;8.90;;;6.73;;
9034;SDS011;4552;43.422;24.592;2023-07-31T19:41:44;11.53;;;6.90;;
9034;SDS011;4552;43.422;24.592;2023-07-31T19:44:11;9.37;;;6.33;;
9034;SDS011;4552;43.422;24.592;2023-07-31T19:46:37;20.73;;;14.17;;
9034;SDS011;4552;43.422;24.592;2023-07-31T19:49:04;22.10;;;13.63;;
9034;SDS011;4552;43.422;24.592;2023-07-31T19:51:31;12.87;;;8.87;;
9034;SDS011;4552;43.422;24.592;2023-07-31T19:53:59;9.07;;;7.20;;
9034;SDS011;4552;43.422;24.592;2023-07-31T19:56:26;9.13;;;7.15;;
9034;SDS011;4552;43.422;24.592;2023-07-31T19:58:56;9.97;;;6.97;;
9034;SDS011;4552;43.422;24.592;2023-07-31T20:01:34;9.40;;;7.57;;
9034;SDS011;4552;43.422;24.592;2023-07-31T20:04:01;7.93;;;6.37;;
9034;SDS011;4552;43.422;24.592;2023-07-31T20:06:28;7.83;;;6.50;;
9034;SDS011;4552;43.422;24.592;2023-07-31T20:08:56;9.17;;;6.63;;
9034;SDS011;4552;43.422;24.592;2023-07-31T20:11:25;9.05;;;6.03;;
9034;SDS011;4552;43.422;24.592;2023-07-31T20:20:35;10.30;;;7.57;;
9034;SDS011;4552;43.422;24.592;2023-07-31T20:23:02;8.63;;;6.60;;
9034;SDS011;4552;43.422;24.592;2023-07-31T20:25:31;7.33;;;6.53;;
9034;SDS011;4552;43.422;24.592;2023-07-31T20:28:01;9.97;;;8.00;;
9034;SDS011;4552;43.422;24.592;2023-07-31T20:36:53;9.93;;;7.43;;
9034;SDS011;4552;43.422;24.592;2023-07-31T20:39:20;8.20;;;6.90;;
9034;SDS011;4552;43.422;24.592;2023-07-31T20:41:47;6.43;;;5.73;;
9034;SDS011;4552;43.422;24.592;2023-07-31T20:44:19;7.73;;;6.20;;
9034;SDS011;4552;43.422;24.592;2023-07-31T20:46:52;6.30;;;5.40;;
9034;SDS011;4552;43.422;24.592;2023-07-31T20:49:21;7.37;;;6.33;;
9034;SDS011;4552;43.422;24.592;2023-07-31T20:51:48;8.17;;;6.00;;
9034;SDS011;4552;43.422;24.592;2023-07-31T20:54:15;9.00;;;6.50;;
9034;SDS011;4552;43.422;24.592;2023-07-31T20:56:42;8.85;;;6.70;;
9034;SDS011;4552;43.422;24.592;2023-07-31T20:59:09;7.37;;;6.17;;
9034;SDS011;4552;43.422;24.592;2023-07-31T21:01:37;7.63;;;6.40;;
9034;SDS011;4552;43.422;24.592;2023-07-31T21:04:04;8.17;;;6.40;;
9034;SDS011;4552;43.422;24.592;2023-07-31T21:06:31;10.53;;;6.23;;
9034;SDS011;4552;43.422;24.592;2023-07-31T21:08:58;9.37;;;6.70;;
9034;SDS011;4552;43.422;24.592;2023-07-31T21:11:25;8.43;;;6.27;;
9034;SDS011;4552;43.422;24.592;2023-07-31T21:13:52;8.43;;;6.47;;
9034;SDS011;4552;43.422;24.592;2023-07-31T21:19:43;7.93;;;6.87;;
9034;SDS011;4552;43.422;24.592;2023-07-31T21:22:14;7.40;;;6.53;;
9034;SDS011;4552;43.422;24.592;2023-07-31T21:24:40;8.13;;;6.10;;
9034;SDS011;4552;43.422;24.592;2023-07-31T21:27:14;8.93;;;6.40;;
9034;SDS011;4552;43.422;24.592;2023-07-31T21:35:58;8.47;;;6.40;;
9034;SDS011;4552;43.422;24.592;2023-07-31T21:38:25;5.97;;;5.37;;
9034;SDS011;4552;43.422;24.592;2023-07-31T21:40:52;6.32;;;5.72;;
9034;SDS011;4552;43.422;24.592;2023-07-31T21:43:19;4.77;;;4.20;;
9034;SDS011;4552;43.422;24.592;2023-07-31T21:49:08;4.20;;;3.80;;
9034;SDS011;4552;43.422;24.592;2023-07-31T21:51:36;4.13;;;3.47;;
9034;SDS011;4552;43.422;24.592;2023-07-31T21:54:03;3.60;;;3.27;;
9034;SDS011;4552;43.422;24.592;2023-07-31T21:56:30;4.63;;;3.10;;
9034;SDS011;4552;43.422;24.592;2023-07-31T21:58:57;5.00;;;4.33;;
9034;SDS011;4552;43.422;24.592;2023-07-31T22:01:23;5.33;;;4.83;;
9034;SDS011;4552;43.422;24.592;2023-07-31T22:03:50;7.63;;;4.87;;
9034;SDS011;4552;43.422;24.592;2023-07-31T22:06:17;7.33;;;5.13;;
9034;SDS011;4552;43.422;24.592;2023-07-31T22:08:45;4.60;;;3.83;;
9034;SDS011;4552;43.422;24.592;2023-07-31T22:11:12;4.50;;;4.07;;
9034;SDS011;4552;43.422;24.592;2023-07-31T22:13:39;4.97;;;4.10;;
9034;SDS011;4552;43.422;24.592;2023-07-31T22:19:28;4.57;;;3.47;;
9034;SDS011;4552;43.422;24.592;2023-07-31T22:21:55;4.17;;;3.73;;
9034;SDS011;4552;43.422;24.592;2023-07-31T22:24:24;3.78;;;3.00;;
9034;SDS011;4552;43.422;24.592;2023-07-31T22:26:51;3.17;;;2.40;;
9034;SDS011;4552;43.422;24.592;2023-07-31T22:29:18;3.30;;;2.37;;
9034;SDS011;4552;43.422;24.592;2023-07-31T22:31:45;2.53;;;2.33;;
9034;SDS011;4552;43.422;24.592;2023-07-31T22:34:12;2.23;;;2.03;;
9034;SDS011;4552;43.422;24.592;2023-07-31T22:36:39;2.80;;;2.50;;
9034;SDS011;4552;43.422;24.592;2023-07-31T22:39:06;2.53;;;2.33;;
9034;SDS011;4552;43.422;24.592;2023-07-31T22:41:35;2.37;;;2.17;;
9034;SDS011;4552;43.422;24.592;2023-07-31T22:44:02;2.60;;;2.40;;
9034;SDS011;4552;43.422;24.592;2023-07-31T22:46:29;2.07;;;1.80;;
9034;SDS011;4552;43.422;24.592;2023-07-31T22:48:56;3.00;;;2.20;;
9034;SDS011;4552;43.422;24.592;2023-07-31T22:51:31;2.70;;;2.50;;
9034;SDS011;4552;43.422;24.592;2023-07-31T22:53:58;2.00;;;1.90;;
9034;SDS011;4552;43.422;24.592;2023-07-31T22:56:25;3.23;;;2.40;;
9034;SDS011;4552;43.422;24.592;2023-07-31T22:58:59;2.55;;;2.35;;
9034;SDS011;4552;43.422;24.592;2023-07-31T23:01:27;4.73;;;3.03;;
9034;SDS011;4552;43.422;24.592;2023-07-31T23:03:54;7.47;;;3.57;;
9034;SDS011;4552;43.422;24.592;2023-07-31T23:06:21;3.30;;;2.63;;
9034;SDS011;4552;43.422;24.592;2023-07-31T23:08:49;2.70;;;2.13;;
9034;SDS011;4552;43.422;24.592;2023-07-31T23:11:16;3.03;;;2.37;;
9034;SDS011;4552;43.422;24.592;2023-07-31T23:13:42;2.50;;;2.08;;
9034;SDS011;4552;43.422;24.592;2023-07-31T23:26:16;2.20;;;2.00;;
9034;SDS011;4552;43.422;24.592;2023-07-31T23:28:42;2.37;;;2.17;;
9034;SDS011;4552;43.422;24.592;2023-07-31T23:41:16;2.13;;;1.93;;
9034;SDS011;4552;43.422;24.592;2023-07-31T23:43:43;2.40;;;2.20;;
9034;SDS011;4552;43.422;24.592;2023-07-31T23:56:17;2.50;;;1.97;;
9034;SDS011;4552;43.422;24.592;2023-07-31T23:58:44;1.87;;;1.77;;
